createdAt,value
2017-11-09T00:00:53.307Z,22.07
2017-11-09T00:03:19.743Z,22.37
2017-11-09T00:05:46.304Z,23.80
2017-11-09T00:08:12.634Z,22.57
2017-11-09T00:10:39.077Z,23.97
2017-11-09T00:13:06.158Z,23.87
2017-11-09T00:15:32.554Z,25.40
2017-11-09T00:17:58.997Z,24.27
2017-11-09T00:20:25.424Z,24.80
2017-11-09T00:22:51.858Z,24.43
2017-11-09T00:25:18.300Z,24.97
2017-11-09T00:27:44.625Z,25.60
2017-11-09T00:30:11.882Z,28.50
2017-11-09T00:32:38.312Z,27.17
2017-11-09T00:35:04.748Z,27.60
2017-11-09T00:37:31.203Z,27.53
2017-11-09T00:39:57.643Z,28.33
2017-11-09T00:42:24.052Z,27.53
2017-11-09T00:44:50.391Z,27.27
2017-11-09T00:47:17.741Z,28.17
2017-11-09T00:49:44.296Z,26.80
2017-11-09T00:52:10.732Z,27.90
2017-11-09T00:54:37.058Z,28.80
2017-11-09T00:57:03.502Z,29.57
2017-11-09T00:59:29.915Z,29.10
2017-11-09T01:01:56.357Z,29.10
2017-11-09T01:04:23.580Z,28.57
2017-11-09T01:06:50.032Z,30.40
2017-11-09T01:09:16.472Z,30.60
2017-11-09T01:11:43.018Z,28.13
2017-11-09T01:14:09.346Z,26.27
2017-11-09T01:16:35.784Z,27.73
2017-11-09T01:19:02.312Z,27.67
2017-11-09T01:21:29.362Z,27.03
2017-11-09T01:23:55.796Z,26.63
2017-11-09T01:26:22.129Z,25.53
2017-11-09T01:28:48.571Z,27.60
2017-11-09T01:31:15.011Z,26.70
2017-11-09T01:33:41.432Z,27.00
2017-11-09T01:36:07.859Z,29.97
2017-11-09T01:38:35.236Z,30.00
2017-11-09T01:41:01.769Z,31.60
2017-11-09T01:43:28.196Z,30.73
2017-11-09T01:45:54.640Z,28.80
2017-11-09T01:48:21.004Z,28.80
2017-11-09T01:50:47.508Z,29.30
2017-11-09T01:53:13.960Z,28.30
2017-11-09T01:55:41.203Z,30.30
2017-11-09T01:58:07.521Z,33.57
2017-11-09T02:00:33.954Z,30.93
2017-11-09T02:03:00.390Z,29.83
2017-11-09T02:05:26.847Z,29.83
2017-11-09T02:07:53.370Z,26.73
2017-11-09T02:10:19.804Z,28.37
2017-11-09T02:12:47.049Z,28.10
2017-11-09T02:15:13.419Z,26.13
2017-11-09T02:17:39.919Z,25.90
2017-11-09T02:20:06.360Z,25.83
2017-11-09T02:22:32.789Z,27.33
2017-11-09T02:24:59.254Z,24.30
2017-11-09T02:27:25.769Z,25.40
2017-11-09T02:29:52.298Z,27.23
2017-11-09T02:32:18.738Z,26.40
2017-11-09T02:34:45.169Z,26.90
2017-11-09T02:37:11.499Z,27.47
2017-11-09T02:39:37.830Z,27.80
2017-11-09T02:42:04.165Z,24.50
2017-11-09T02:44:30.598Z,26.37
2017-11-09T02:46:57.634Z,26.30
2017-11-09T02:49:24.090Z,25.30
2017-11-09T02:51:50.481Z,24.17
2017-11-09T02:54:16.961Z,26.27
2017-11-09T02:56:43.390Z,23.70
2017-11-09T02:59:09.820Z,23.60
2017-11-09T03:01:36.236Z,25.40
2017-11-09T03:04:03.343Z,24.97
2017-11-09T03:06:29.852Z,25.23
2017-11-09T03:08:56.279Z,24.43
2017-11-09T03:11:22.712Z,25.00
2017-11-09T03:13:49.145Z,25.87
2017-11-09T03:16:15.477Z,27.40
2017-11-09T03:18:41.913Z,26.97
2017-11-09T03:21:09.168Z,26.20
2017-11-09T03:23:35.498Z,26.83
2017-11-09T03:26:01.950Z,27.20
2017-11-09T03:28:28.373Z,28.77
2017-11-09T03:30:54.826Z,27.33
2017-11-09T03:33:21.238Z,27.53
2017-11-09T03:35:47.674Z,26.90
2017-11-09T03:38:14.851Z,27.53
2017-11-09T03:40:41.196Z,28.80
2017-11-09T03:43:07.590Z,27.43
2017-11-09T03:45:34.033Z,27.40
2017-11-09T03:48:00.459Z,28.00
2017-11-09T03:50:26.828Z,27.73
2017-11-09T03:52:53.160Z,29.23
2017-11-09T03:55:20.379Z,28.40
2017-11-09T03:57:46.816Z,27.47
2017-11-09T04:00:13.204Z,28.77
2017-11-09T04:02:39.687Z,28.77
2017-11-09T04:05:06.119Z,28.73
2017-11-09T04:07:32.561Z,28.90
2017-11-09T04:09:58.956Z,28.50
2017-11-09T04:12:26.250Z,29.37
2017-11-09T04:14:52.675Z,28.53
2017-11-09T04:17:19.109Z,28.53
2017-11-09T04:19:45.526Z,28.57
2017-11-09T04:22:11.978Z,28.37
2017-11-09T04:24:38.383Z,29.07
2017-11-09T04:27:04.848Z,27.90
2017-11-09T04:29:32.010Z,29.20
2017-11-09T04:31:58.438Z,29.23
2017-11-09T04:34:24.807Z,29.20
2017-11-09T04:36:51.203Z,30.80
2017-11-09T04:39:17.652Z,33.03
2017-11-09T04:41:44.150Z,33.50
2017-11-09T04:44:10.585Z,32.73
2017-11-09T04:46:37.768Z,31.00
2017-11-09T04:49:04.091Z,31.60
2017-11-09T04:51:30.499Z,31.77
2017-11-09T04:53:56.970Z,29.23
2017-11-09T04:56:23.397Z,30.03
2017-11-09T04:58:49.845Z,29.60
2017-11-09T05:01:16.266Z,30.17
2017-11-09T05:03:43.532Z,29.50
2017-11-09T05:06:09.963Z,29.60
2017-11-09T05:08:36.389Z,30.80
2017-11-09T05:11:02.868Z,28.00
2017-11-09T05:13:29.357Z,29.20
2017-11-09T05:15:55.822Z,29.30
2017-11-09T05:18:22.238Z,29.40
2017-11-09T05:20:49.483Z,30.90
2017-11-09T05:23:15.918Z,28.30
2017-11-09T05:25:42.251Z,29.67
2017-11-09T05:28:08.694Z,29.90
2017-11-09T05:30:35.243Z,31.03
2017-11-09T05:33:01.666Z,28.77
2017-11-09T05:35:28.104Z,29.73
2017-11-09T05:37:55.354Z,29.83
2017-11-09T05:40:21.791Z,29.50
2017-11-09T05:42:48.328Z,29.33
2017-11-09T05:45:14.692Z,29.47
2017-11-09T05:47:41.040Z,28.23
2017-11-09T05:50:07.518Z,29.40
2017-11-09T05:52:33.953Z,29.57
2017-11-09T05:55:01.217Z,29.63
2017-11-09T05:57:27.537Z,28.43
2017-11-09T05:59:53.974Z,28.63
2017-11-09T06:02:20.409Z,28.07
2017-11-09T06:04:46.815Z,29.87
2017-11-09T06:07:13.288Z,29.20
2017-11-09T06:09:39.713Z,28.87
2017-11-09T06:12:06.939Z,28.73
2017-11-09T06:14:33.412Z,27.20
2017-11-09T06:16:59.857Z,28.93
2017-11-09T06:19:26.235Z,29.40
2017-11-09T06:21:52.684Z,28.23
2017-11-09T06:24:19.135Z,27.53
2017-11-09T06:26:45.583Z,28.60
2017-11-09T06:29:12.726Z,27.80
2017-11-09T06:31:39.170Z,28.33
2017-11-09T06:34:05.545Z,30.13
2017-11-09T06:36:32.014Z,31.87
2017-11-09T06:38:58.401Z,30.80
2017-11-09T06:41:24.731Z,32.30
2017-11-09T06:43:51.130Z,32.73
2017-11-09T06:46:18.281Z,39.27
2017-11-09T06:48:44.725Z,41.47
2017-11-09T06:51:11.151Z,43.60
2017-11-09T06:53:37.687Z,39.80
2017-11-09T06:56:04.642Z,40.43
2017-11-09T06:58:31.375Z,39.67
2017-11-09T07:00:57.913Z,42.47
2017-11-09T07:03:24.356Z,37.03
2017-11-09T07:05:50.782Z,35.00
2017-11-09T07:08:17.525Z,34.80
2017-11-09T07:10:44.061Z,32.20
2017-11-09T07:13:10.495Z,46.00
2017-11-09T07:18:09.510Z,36.50
2017-11-09T07:20:36.067Z,33.10
2017-11-09T07:23:02.537Z,32.90
2017-11-09T07:25:29.326Z,32.30
2017-11-09T07:27:56.170Z,31.67
2017-11-09T07:30:23.645Z,31.10
2017-11-09T07:32:50.473Z,32.20
2017-11-09T07:35:17.091Z,33.40
2017-11-09T07:37:43.572Z,32.23
2017-11-09T07:40:10.188Z,36.00
2017-11-09T07:42:36.622Z,35.40
2017-11-09T07:45:03.173Z,33.57
2017-11-09T07:47:29.900Z,35.30
2017-11-09T07:49:56.438Z,33.77
2017-11-09T07:52:23.035Z,28.00
2017-11-09T07:54:49.900Z,27.90
2017-11-09T07:57:16.569Z,26.70
2017-11-09T07:59:42.944Z,26.50
2017-11-09T08:02:09.316Z,28.07
2017-11-09T08:04:35.924Z,28.83
2017-11-09T08:07:03.016Z,25.70
2017-11-09T08:09:29.451Z,26.13
2017-11-09T08:11:56.304Z,26.93
2017-11-09T08:14:22.842Z,25.70
2017-11-09T08:16:49.276Z,26.93
2017-11-09T08:19:16.226Z,24.97
2017-11-09T08:21:42.752Z,24.37
2017-11-09T08:24:09.198Z,24.40
2017-11-09T08:26:36.337Z,24.37
2017-11-09T08:29:02.771Z,22.87
2017-11-09T08:31:29.311Z,25.37
2017-11-09T08:33:55.746Z,22.67
2017-11-09T08:36:23.007Z,25.10
2017-11-09T08:38:49.450Z,23.27
2017-11-09T08:41:16.057Z,23.57
2017-11-09T08:43:42.507Z,22.83
2017-11-09T08:46:08.888Z,23.00
2017-11-09T08:48:35.276Z,22.47
2017-11-09T08:51:02.227Z,23.97
2017-11-09T08:53:29.027Z,21.33
2017-11-09T08:55:55.717Z,21.47
2017-11-09T08:58:22.245Z,22.30
2017-11-09T09:00:48.676Z,24.67
2017-11-09T09:03:15.120Z,23.70
2017-11-09T09:05:42.067Z,21.67
2017-11-09T09:08:08.493Z,22.87
2017-11-09T09:10:35.038Z,23.53
2017-11-09T09:13:01.473Z,21.93
2017-11-09T09:15:28.104Z,22.70
2017-11-09T09:17:54.439Z,23.00
2017-11-09T09:20:20.833Z,21.67
2017-11-09T09:22:47.717Z,21.37
2017-11-09T09:25:14.158Z,22.13
2017-11-09T09:27:40.823Z,22.40
2017-11-09T09:30:07.948Z,22.00
2017-11-09T09:32:34.373Z,21.57
2017-11-09T09:35:01.017Z,22.20
2017-11-09T09:37:27.764Z,23.53
2017-11-09T09:39:54.293Z,21.50
2017-11-09T09:42:20.811Z,19.80
2017-11-09T09:44:47.469Z,21.93
2017-11-09T09:47:13.895Z,21.27
2017-11-09T09:49:41.166Z,21.23
2017-11-09T09:52:07.807Z,21.70
2017-11-09T09:54:34.198Z,21.93
2017-11-09T09:57:00.674Z,20.70
2017-11-09T09:59:27.061Z,21.60
2017-11-09T10:01:53.537Z,21.73
2017-11-09T10:04:19.972Z,21.33
2017-11-09T10:06:46.413Z,25.53
2017-11-09T10:09:12.840Z,23.47
2017-11-09T10:11:39.571Z,22.23
2017-11-09T10:14:06.016Z,21.83
2017-11-09T10:16:32.452Z,22.43
2017-11-09T10:18:58.820Z,21.80
2017-11-09T10:21:25.832Z,22.00
2017-11-09T10:23:52.267Z,22.50
2017-11-09T10:26:18.599Z,22.30
2017-11-09T10:28:45.033Z,23.27
2017-11-09T10:31:11.572Z,22.53
2017-11-09T10:33:38.005Z,23.40
2017-11-09T10:36:04.376Z,22.83
2017-11-09T10:38:31.285Z,21.77
2017-11-09T10:40:57.806Z,22.17
2017-11-09T10:43:24.229Z,21.27
2017-11-09T10:45:50.691Z,19.80
2017-11-09T10:48:17.126Z,19.90
2017-11-09T10:50:43.609Z,20.63
2017-11-09T10:53:10.501Z,21.23
2017-11-09T10:55:36.878Z,20.57
2017-11-09T10:58:03.275Z,18.77
2017-11-09T11:00:29.831Z,19.70
2017-11-09T11:02:56.256Z,18.17
2017-11-09T11:05:23.380Z,21.17
2017-11-09T11:07:50.392Z,21.40
2017-11-09T11:10:17.292Z,22.93
2017-11-09T11:12:43.983Z,23.27
2017-11-09T11:15:10.471Z,23.03
2017-11-09T11:17:37.005Z,22.60
2017-11-09T11:20:03.952Z,22.17
2017-11-09T11:22:30.385Z,19.40
2017-11-09T11:24:56.831Z,18.40
2017-11-09T11:27:23.766Z,18.57
2017-11-09T11:29:50.304Z,19.97
2017-11-09T11:32:16.763Z,19.80
2017-11-09T11:34:43.795Z,20.40
2017-11-09T11:37:10.662Z,22.40
2017-11-09T11:39:37.177Z,21.10
2017-11-09T11:42:03.921Z,20.00
2017-11-09T11:44:30.346Z,20.03
2017-11-09T11:46:56.784Z,18.70
2017-11-09T11:49:23.216Z,18.87
2017-11-09T11:51:50.027Z,18.47
2017-11-09T11:54:16.480Z,20.03
2017-11-09T11:56:42.901Z,20.13
2017-11-09T11:59:09.774Z,19.90
2017-11-09T12:01:36.319Z,18.50
2017-11-09T12:04:02.896Z,17.00
2017-11-09T12:06:29.590Z,18.03
2017-11-09T12:08:56.244Z,17.27
2017-11-09T12:11:23.227Z,17.90
2017-11-09T12:13:49.695Z,17.20
2017-11-09T12:16:16.150Z,19.23
2017-11-09T12:18:42.788Z,18.63
2017-11-09T12:21:09.492Z,19.70
2017-11-09T12:23:35.964Z,19.60
2017-11-09T12:26:03.015Z,18.83
2017-11-09T12:28:29.857Z,18.27
2017-11-09T12:30:56.462Z,18.73
2017-11-09T12:33:23.516Z,17.20
2017-11-09T12:35:49.990Z,19.83
2017-11-09T12:38:16.424Z,17.90
2017-11-09T12:40:43.603Z,17.83
2017-11-09T12:43:10.113Z,19.30
2017-11-09T12:45:36.649Z,19.47
2017-11-09T12:48:03.486Z,18.43
2017-11-09T12:50:30.030Z,17.00
2017-11-09T12:52:56.559Z,19.27
2017-11-09T12:55:23.507Z,15.50
2017-11-09T12:57:51.085Z,16.20
2017-11-09T13:00:17.516Z,17.43
2017-11-09T13:02:44.253Z,17.20
2017-11-09T13:05:10.782Z,16.87
2017-11-09T13:07:37.227Z,18.70
2017-11-09T13:10:04.162Z,17.40
2017-11-09T13:12:30.596Z,18.33
2017-11-09T13:14:57.806Z,19.80
2017-11-09T13:17:25.423Z,19.50
2017-11-09T13:19:51.957Z,19.73
2017-11-09T13:22:18.487Z,17.63
2017-11-09T13:24:45.343Z,18.37
2017-11-09T13:27:11.843Z,19.23
2017-11-09T13:29:38.333Z,19.83
2017-11-09T13:32:05.351Z,18.83
2017-11-09T13:34:32.410Z,19.23
2017-11-09T13:36:59.039Z,19.43
2017-11-09T13:39:25.783Z,18.73
2017-11-09T13:41:52.217Z,20.30
2017-11-09T13:44:18.761Z,20.40
2017-11-09T13:46:45.701Z,17.70
2017-11-09T13:49:12.136Z,20.10
2017-11-09T13:51:39.500Z,20.00
2017-11-09T13:54:06.440Z,21.70
2017-11-09T13:56:33.862Z,20.93
2017-11-09T13:59:00.639Z,20.60
2017-11-09T14:01:27.175Z,19.93
2017-11-09T14:03:54.471Z,22.50
2017-11-09T14:06:21.073Z,19.37
2017-11-09T14:08:47.504Z,19.67
2017-11-09T14:11:14.011Z,19.40
2017-11-09T14:13:40.896Z,19.50
2017-11-09T14:16:07.355Z,19.33
2017-11-09T14:18:33.860Z,18.57
2017-11-09T14:21:00.498Z,18.60
2017-11-09T14:23:27.043Z,18.80
2017-11-09T14:25:53.470Z,18.80
2017-11-09T14:28:20.213Z,17.27
2017-11-09T14:30:46.748Z,18.20
2017-11-09T14:33:13.183Z,18.23
2017-11-09T14:35:39.834Z,17.00
2017-11-09T14:38:06.359Z,16.30
2017-11-09T14:40:32.834Z,16.60
2017-11-09T14:42:59.536Z,16.33
2017-11-09T14:45:26.705Z,16.60
2017-11-09T14:47:53.192Z,16.03
2017-11-09T14:50:19.748Z,16.90
2017-11-09T14:52:46.511Z,16.57
2017-11-09T14:55:12.937Z,17.60
2017-11-09T14:57:39.790Z,17.60
2017-11-09T15:00:06.326Z,17.93
2017-11-09T15:02:32.979Z,19.03
2017-11-09T15:04:59.849Z,20.73
2017-11-09T15:07:26.559Z,20.30
2017-11-09T15:09:53.055Z,19.07
2017-11-09T15:12:19.825Z,19.03
2017-11-09T15:14:46.257Z,17.27
2017-11-09T15:17:12.809Z,18.97
2017-11-09T15:19:39.667Z,26.87
2017-11-09T15:22:06.171Z,17.60
2017-11-09T15:24:32.611Z,18.30
2017-11-09T15:26:59.484Z,17.87
2017-11-09T15:29:25.905Z,18.03
2017-11-09T15:31:52.331Z,18.07
2017-11-09T15:34:19.177Z,18.53
2017-11-09T15:36:45.605Z,16.80
2017-11-09T15:39:12.150Z,17.00
2017-11-09T15:41:38.687Z,16.80
2017-11-09T15:44:05.226Z,17.03
2017-11-09T15:46:31.756Z,18.10
2017-11-09T15:48:58.521Z,18.43
2017-11-09T15:51:25.133Z,18.80
2017-11-09T15:53:51.678Z,17.30
2017-11-09T15:56:18.311Z,16.00
2017-11-09T15:58:44.827Z,15.90
2017-11-09T16:01:11.392Z,17.37
2017-11-09T16:03:38.436Z,15.60
2017-11-09T16:06:04.810Z,15.57
2017-11-09T16:08:31.224Z,16.10
2017-11-09T16:10:57.716Z,17.50
2017-11-09T16:13:24.286Z,16.83
2017-11-09T16:15:50.667Z,18.13
2017-11-09T16:18:17.133Z,17.00
2017-11-09T16:20:43.580Z,15.40
2017-11-09T16:23:10.014Z,16.80
2017-11-09T16:25:36.451Z,16.13
2017-11-09T16:28:02.892Z,16.97
2017-11-09T16:30:29.330Z,15.97
2017-11-09T16:32:55.756Z,15.83
2017-11-09T16:35:22.187Z,15.43
2017-11-09T16:37:48.621Z,16.70
2017-11-09T16:40:15.068Z,15.50
2017-11-09T16:42:41.491Z,16.20
2017-11-09T16:45:07.927Z,15.70
2017-11-09T16:47:34.360Z,16.47
2017-11-09T16:50:00.727Z,16.73
2017-11-09T16:52:27.239Z,17.10
2017-11-09T16:54:53.775Z,17.07
2017-11-09T16:57:20.187Z,16.23
2017-11-09T16:59:47.353Z,16.37
2017-11-09T17:02:13.787Z,14.93
2017-11-09T17:04:40.222Z,16.93
2017-11-09T17:07:06.658Z,16.17
2017-11-09T17:09:33.091Z,15.90
2017-11-09T17:11:59.429Z,17.10
2017-11-09T17:14:25.859Z,18.23
2017-11-09T17:16:53.141Z,17.13
2017-11-09T17:19:19.550Z,17.70
2017-11-09T17:21:45.982Z,17.93
2017-11-09T17:24:12.426Z,17.40
2017-11-09T17:26:38.861Z,18.50
2017-11-09T17:29:05.286Z,18.30
2017-11-09T17:31:31.730Z,16.93
2017-11-09T17:33:58.882Z,17.63
2017-11-09T17:36:25.243Z,17.60
2017-11-09T17:38:51.741Z,17.50
2017-11-09T17:41:18.178Z,17.30
2017-11-09T17:43:44.620Z,16.90
2017-11-09T17:46:11.046Z,15.67
2017-11-09T17:48:37.380Z,16.87
2017-11-09T17:51:04.735Z,15.60
2017-11-09T17:53:31.178Z,16.47
2017-11-09T17:55:57.606Z,15.13
2017-11-09T17:58:24.049Z,16.77
2017-11-09T18:00:50.485Z,15.00
2017-11-09T18:03:16.925Z,16.97
2017-11-09T18:05:43.350Z,17.07
2017-11-09T18:08:10.596Z,17.10
2017-11-09T18:10:37.032Z,16.53
2017-11-09T18:13:03.478Z,17.10
2017-11-09T18:15:29.909Z,16.97
2017-11-09T18:17:56.336Z,16.97
2017-11-09T18:20:22.738Z,17.60
2017-11-09T18:22:49.212Z,17.50
2017-11-09T18:25:16.366Z,17.53
2017-11-09T18:27:42.759Z,16.40
2017-11-09T18:30:09.238Z,15.90
2017-11-09T18:32:35.668Z,17.73
2017-11-09T18:35:02.097Z,17.30
2017-11-09T18:37:28.529Z,17.13
2017-11-09T18:39:54.964Z,18.17
2017-11-09T18:42:22.226Z,17.33
2017-11-09T18:44:48.653Z,17.17
2017-11-09T18:47:15.095Z,16.80
2017-11-09T18:49:41.530Z,18.47
2017-11-09T18:52:07.957Z,17.80
2017-11-09T18:54:34.392Z,17.97
2017-11-09T18:57:00.835Z,19.63
2017-11-09T18:59:27.953Z,20.23
2017-11-09T19:01:54.395Z,20.30
2017-11-09T19:04:20.847Z,21.27
2017-11-09T19:06:47.291Z,21.40
2017-11-09T19:09:13.717Z,22.20
2017-11-09T19:11:40.115Z,20.00
2017-11-09T19:14:06.582Z,20.90
2017-11-09T19:16:33.746Z,19.10
2017-11-09T19:19:00.798Z,21.20
2017-11-09T19:21:27.220Z,22.00
2017-11-09T19:23:53.655Z,21.87
2017-11-09T19:26:20.207Z,23.03
2017-11-09T19:28:46.628Z,21.27
2017-11-09T19:31:13.068Z,20.37
2017-11-09T19:33:40.196Z,21.37
2017-11-09T19:36:06.648Z,22.63
2017-11-09T19:38:33.083Z,21.13
2017-11-09T19:40:59.597Z,21.20
2017-11-09T19:43:26.038Z,21.50
2017-11-09T19:45:52.491Z,23.23
2017-11-09T19:48:18.935Z,23.80
2017-11-09T19:50:46.179Z,23.70
2017-11-09T19:53:12.613Z,24.27
2017-11-09T19:55:38.982Z,26.00
2017-11-09T19:58:05.379Z,26.50
2017-11-09T20:00:31.814Z,28.30
2017-11-09T20:02:58.256Z,29.30
2017-11-09T20:05:24.684Z,29.60
2017-11-09T20:07:51.914Z,31.40
2017-11-09T20:10:18.315Z,29.53
2017-11-09T20:12:44.673Z,36.67
2017-11-09T20:15:11.114Z,33.87
2017-11-09T20:17:37.557Z,33.03
2017-11-09T20:20:04.008Z,36.90
2017-11-09T20:22:30.502Z,30.60
2017-11-09T20:24:57.595Z,29.87
2017-11-09T20:27:24.141Z,26.93
2017-11-09T20:29:50.569Z,28.10
2017-11-09T20:32:17.010Z,28.00
2017-11-09T20:34:43.333Z,26.47
2017-11-09T20:37:09.772Z,30.23
2017-11-09T20:39:36.210Z,28.57
2017-11-09T20:42:03.431Z,29.10
2017-11-09T20:44:29.892Z,28.57
2017-11-09T20:46:56.325Z,28.43
2017-11-09T20:49:22.695Z,28.70
2017-11-09T20:51:49.203Z,28.43
2017-11-09T20:54:15.630Z,27.50
2017-11-09T20:56:42.064Z,28.70
2017-11-09T20:59:09.224Z,32.07
2017-11-09T21:01:35.762Z,27.90
2017-11-09T21:04:02.202Z,27.47
2017-11-09T21:06:28.688Z,27.93
2017-11-09T21:08:55.160Z,25.57
2017-11-09T21:11:21.593Z,27.57
2017-11-09T21:13:48.038Z,25.03
2017-11-09T21:16:15.179Z,28.23
2017-11-09T21:18:41.614Z,27.23
2017-11-09T21:21:08.160Z,28.93
2017-11-09T21:23:34.583Z,28.60
2017-11-09T21:26:01.021Z,27.80
2017-11-09T21:28:27.464Z,30.17
2017-11-09T21:30:53.907Z,26.40
2017-11-09T21:33:21.153Z,26.00
2017-11-09T21:35:47.588Z,23.37
2017-11-09T21:38:14.013Z,21.60
2017-11-09T21:40:40.457Z,20.00
2017-11-09T21:43:06.883Z,21.07
2017-11-09T21:45:33.428Z,21.03
2017-11-09T21:47:59.826Z,20.40
2017-11-09T21:50:26.990Z,20.87
2017-11-09T21:52:53.338Z,21.97
2017-11-09T21:55:19.774Z,20.70
2017-11-09T21:57:46.216Z,20.60
2017-11-09T22:00:12.652Z,24.00
2017-11-09T22:02:39.077Z,24.67
2017-11-09T22:05:05.512Z,23.70
2017-11-09T22:07:32.663Z,22.17
2017-11-09T22:09:59.098Z,24.40
2017-11-09T22:12:25.545Z,22.90
2017-11-09T22:14:51.968Z,22.67
2017-11-09T22:17:18.409Z,22.20
2017-11-09T22:19:44.846Z,22.53
2017-11-09T22:22:11.273Z,22.77
2017-11-09T22:24:38.467Z,23.37
2017-11-09T22:27:04.970Z,21.20
2017-11-09T22:29:31.403Z,22.60
2017-11-09T22:31:57.830Z,23.50
2017-11-09T22:34:24.264Z,24.33
2017-11-09T22:36:50.671Z,22.07
2017-11-09T22:39:17.137Z,23.53
2017-11-09T22:41:44.294Z,23.57
2017-11-09T22:44:10.687Z,25.57
2017-11-09T22:46:37.163Z,26.23
2017-11-09T22:49:03.598Z,29.67
2017-11-09T22:51:30.127Z,30.50
2017-11-09T22:53:56.561Z,30.50
2017-11-09T22:56:23.005Z,30.00
2017-11-09T22:58:50.126Z,32.43
2017-11-09T23:01:16.593Z,33.13
2017-11-09T23:03:43.017Z,30.90
2017-11-09T23:06:09.350Z,29.13
2017-11-09T23:08:35.784Z,28.87
2017-11-09T23:11:02.218Z,27.47
2017-11-09T23:13:28.667Z,26.53
2017-11-09T23:15:55.907Z,24.70
2017-11-09T23:18:22.314Z,25.40
2017-11-09T23:20:48.713Z,24.30
2017-11-09T23:23:15.117Z,25.00
2017-11-09T23:25:41.543Z,21.40
2017-11-09T23:28:07.978Z,20.47
2017-11-09T23:30:34.415Z,21.87
2017-11-09T23:33:01.566Z,23.07
2017-11-09T23:35:28.069Z,21.03
2017-11-09T23:37:54.544Z,21.13
2017-11-09T23:40:20.972Z,21.30
2017-11-09T23:42:47.415Z,22.23
2017-11-09T23:45:13.840Z,21.70
2017-11-09T23:47:40.274Z,21.03
2017-11-09T23:50:07.422Z,22.20
2017-11-09T23:52:33.862Z,20.87
2017-11-09T23:55:00.304Z,22.77
2017-11-09T23:57:26.687Z,23.20
2017-11-09T23:59:53.169Z,22.90
